Time;durP1;ratioP1;P1;durP2;ratioP2;P2;SDS_P1;SDS_P2;PMS_P1;PMS_P2;Temp;Humidity;BMP_temperature;BMP_pressure;BME280_temperature;BME280_humidity;BME280_pressure;Samples;Min_cycle;Max_cycle;Signal;HPM_P1;HPM_P2
2023/08/07 00:01:28;;;;;;;13.00;7.20;;;;;;;37.34;45.68;99138.73;108797;1258;65045;-91
2023/08/07 00:04:16;;;;;;;11.20;6.90;;;;;;;37.00;47.27;99136.48;108726;1259;59663;-88
2023/08/07 00:07:04;;;;;;;11.80;6.80;;;;;;;37.02;47.63;99137.51;108778;1259;59627;-92
2023/08/07 00:09:52;;;;;;;10.20;7.50;;;;;;;37.27;47.17;99135.49;108589;1258;67078;-91
2023/08/07 00:12:40;;;;;;;10.60;6.60;;;;;;;37.41;46.73;99133.53;108830;1258;61930;-88
2023/08/07 00:15:29;;;;;;;11.90;7.00;;;;;;;37.43;46.71;99128.77;108702;1258;66078;-89
2023/08/07 00:18:16;;;;;;;12.50;7.30;;;;;;;37.37;47.17;99129.23;108793;1258;60079;-89
2023/08/07 00:21:04;;;;;;;8.70;7.50;;;;;;;37.34;47.31;99123.66;108813;1258;59090;-89
2023/08/07 00:23:52;;;;;;;11.40;7.00;;;;;;;37.10;48.13;99120.86;108727;1258;66964;-92
2023/08/07 00:26:39;;;;;;;12.10;7.60;;;;;;;36.90;48.91;99117.22;108752;1258;59806;-92
2023/08/07 00:29:27;;;;;;;9.30;6.80;;;;;;;36.92;48.97;99119.31;108637;1258;64106;-88
2023/08/07 00:32:15;;;;;;;8.40;6.80;;;;;;;37.00;48.95;99118.36;108589;1258;60327;-88
2023/08/07 00:35:04;;;;;;;9.80;7.30;;;;;;;37.11;48.57;99117.42;108522;1258;59314;-89
2023/08/07 00:37:51;;;;;;;13.10;8.40;;;;;;;37.12;48.46;99113.89;108456;1258;65950;-88
2023/08/07 00:40:39;;;;;;;11.50;7.50;;;;;;;37.05;48.60;99105.98;108439;1259;60020;-89
2023/08/07 00:43:27;;;;;;;9.90;7.50;;;;;;;36.88;49.29;99100.63;108564;1258;65007;-89
2023/08/07 00:46:15;;;;;;;11.10;7.40;;;;;;;36.77;49.71;99099.79;108560;1260;59630;-88
2023/08/07 00:49:03;;;;;;;10.70;7.60;;;;;;;36.76;50.09;99099.39;108496;1260;59864;-88
2023/08/07 00:51:52;;;;;;;9.90;7.00;;;;;;;36.89;49.71;99096.65;108566;1258;67143;-88
2023/08/07 00:54:40;;;;;;;13.00;8.00;;;;;;;36.88;49.77;99094.06;108429;1257;60895;-88
2023/08/07 00:57:28;;;;;;;10.60;8.20;;;;;;;36.81;50.13;99089.19;108540;1259;64124;-88
2023/08/07 01:00:16;;;;;;;11.60;7.90;;;;;;;36.75;50.42;99081.07;108498;1259;59606;-89
2023/08/07 01:03:06;;;;;;;10.80;7.50;;;;;;;36.74;50.52;99084.20;108429;1258;59226;-89
2023/08/07 01:05:54;;;;;;;13.40;8.20;;;;;;;36.71;50.33;99083.58;108479;1259;67324;-89
2023/08/07 01:08:42;;;;;;;10.60;7.90;;;;;;;36.66;49.97;99081.75;108574;1258;60849;-89
2023/08/07 01:11:45;;;;;;;10.70;7.40;;;;;;;36.59;50.06;99076.05;108415;1259;65913;-90
2023/08/07 01:14:49;;;;;;;10.40;8.20;;;;;;;36.49;50.23;99077.61;108518;1260;59115;-89
2023/08/07 01:17:37;;;;;;;13.20;8.40;;;;;;;36.57;50.37;99072.55;108640;1258;59924;-90
2023/08/07 01:20:25;;;;;;;15.80;8.30;;;;;;;36.65;50.14;99064.09;108525;1258;65584;-90
2023/08/07 01:23:13;;;;;;;12.50;8.40;;;;;;;36.75;49.81;99057.63;108510;1259;60738;-89
2023/08/07 01:26:00;;;;;;;9.30;7.20;;;;;;;36.77;49.25;99061.13;108554;1258;62894;-88
2023/08/07 01:29:13;;;;;;;13.90;8.10;;;;;;;36.50;49.88;99059.21;108561;1258;59821;-88
2023/08/07 01:32:00;;;;;;;14.20;8.70;;;;;;;36.50;49.47;99051.45;108517;1259;59909;-90
2023/08/07 01:34:48;;;;;;;11.80;8.50;;;;;;;36.38;49.47;99053.73;108482;1257;66980;-89
2023/08/07 01:37:38;;;;;;;14.90;8.40;;;;;;;36.45;49.74;99055.81;108520;1259;60227;-88
2023/08/07 01:40:27;;;;;;;15.50;8.70;;;;;;;36.42;50.71;99052.20;108475;1259;64802;-89
2023/08/07 01:43:16;;;;;;;13.00;9.60;;;;;;;36.28;53.33;99045.04;108553;1257;61727;-88
2023/08/07 01:46:06;;;;;;;13.80;9.10;;;;;;;36.20;55.11;99034.35;108449;1257;59291;-88
2023/08/07 01:48:54;;;;;;;15.00;8.60;;;;;;;36.14;55.61;99024.52;108512;1259;67086;-90
2023/08/07 01:51:42;;;;;;;14.10;8.30;;;;;;;36.07;55.51;99013.79;108593;1258;59345;-89
2023/08/07 01:54:30;;;;;;;11.50;8.50;;;;;;;36.07;55.00;99007.95;108542;1259;65102;-87
2023/08/07 01:57:17;;;;;;;12.90;8.70;;;;;;;35.87;55.29;99003.07;108584;1258;60558;-89
2023/08/07 02:00:06;;;;;;;13.50;8.70;;;;;;;35.64;55.95;99011.89;108500;1259;60700;-89
2023/08/07 02:03:02;;;;;;;13.60;9.00;;;;;;;35.48;57.19;99026.52;108587;1258;65807;-89
2023/08/07 02:05:50;;;;;;;14.00;9.70;;;;;;;35.44;57.87;99026.71;108563;1259;60287;-88
2023/08/07 02:08:38;;;;;;;14.80;9.60;;;;;;;35.55;57.61;99023.95;108493;1259;65127;-90
2023/08/07 02:11:26;;;;;;;13.50;8.90;;;;;;;35.61;57.62;99024.02;108525;1259;59173;-88
2023/08/07 02:14:16;;;;;;;13.80;8.70;;;;;;;35.62;57.34;99027.81;108511;1259;59389;-89
2023/08/07 02:17:04;;;;;;;11.90;8.60;;;;;;;35.61;56.53;99034.04;108439;1258;67889;-89
2023/08/07 02:19:52;;;;;;;12.10;8.60;;;;;;;35.57;55.75;99032.35;108580;1258;61101;-88
2023/08/07 02:22:40;;;;;;;14.20;8.60;;;;;;;35.60;54.61;99024.36;108589;1258;65091;-88
2023/08/07 02:25:28;;;;;;;11.90;8.70;;;;;;;35.68;53.06;99026.39;108559;1259;59571;-89
2023/08/07 02:28:17;;;;;;;11.40;8.70;;;;;;;35.71;52.01;99024.52;108533;1259;59124;-88
2023/08/07 02:31:05;;;;;;;11.80;8.10;;;;;;;35.68;50.83;99029.73;108542;1258;66873;-89
2023/08/07 02:33:53;;;;;;;15.60;8.60;;;;;;;35.44;50.57;99028.98;108557;1258;60044;-89
2023/08/07 02:36:40;;;;;;;13.60;8.80;;;;;;;35.45;50.01;99027.04;108526;1259;64056;-88
2023/08/07 02:39:28;;;;;;;16.10;9.20;;;;;;;35.60;49.02;99019.09;108558;1258;59622;-89
2023/08/07 02:43:00;;;;;;;13.00;9.30;;;;;;;35.48;48.85;99019.20;108522;1258;62008;-89
2023/08/07 14:44:25;;;;;;;1.10;0.50;;;;;;;39.92;25.91;99586.48;108680;1257;59218;-89
2023/08/07 14:47:13;;;;;;;2.60;0.60;;;;;;;39.57;26.47;99591.99;108636;1260;58976;-92
2023/08/07 14:50:01;;;;;;;1.80;0.50;;;;;;;39.04;27.20;99597.29;108751;1259;65864;-89
2023/08/07 14:52:49;;;;;;;2.10;0.70;;;;;;;38.48;27.91;99597.16;108655;1260;61081;-91
2023/08/07 14:55:37;;;;;;;2.10;0.60;;;;;;;37.95;28.78;99602.52;108655;1257;65060;-90
2023/08/07 14:58:24;;;;;;;0.50;0.40;;;;;;;37.80;29.07;99603.41;108641;1259;59864;-90
2023/08/07 15:01:12;;;;;;;2.30;0.50;;;;;;;37.76;28.93;99602.48;108796;1257;59080;-91
2023/08/07 15:04:00;;;;;;;1.20;0.40;;;;;;;37.58;29.07;99609.64;108591;1261;67181;-91
2023/08/07 15:06:50;;;;;;;15.40;1.00;;;;;;;37.46;28.75;99614.70;108753;1259;60747;-92
2023/08/07 15:09:38;;;;;;;2.60;0.50;;;;;;;37.43;28.50;99622.42;108650;1259;65072;-87
2023/08/07 15:12:26;;;;;;;0.90;0.60;;;;;;;37.50;28.30;99620.84;108604;1259;60528;-87
2023/08/07 15:15:14;;;;;;;2.90;1.30;;;;;;;36.76;29.51;99618.70;108687;1260;59333;-86
2023/08/07 15:18:04;;;;;;;5.70;1.10;;;;;;;36.48;30.13;99619.45;108752;1258;65969;-87
2023/08/07 15:20:52;;;;;;;3.50;0.90;;;;;;;36.31;30.45;99613.70;108746;1258;60147;-86
2023/08/07 15:23:40;;;;;;;0.60;0.40;;;;;;;36.26;30.41;99614.68;108709;1258;64031;-89
2023/08/07 15:26:28;;;;;;;1.00;0.50;;;;;;;35.99;30.88;99611.79;108684;1259;59171;-86
2023/08/07 15:29:16;;;;;;;0.90;0.60;;;;;;;35.83;31.28;99611.45;108694;1258;59778;-88
2023/08/07 15:32:04;;;;;;;0.70;0.40;;;;;;;35.83;31.58;99612.42;108668;1258;67857;-88
2023/08/07 15:34:52;;;;;;;1.00;0.80;;;;;;;35.78;31.62;99614.55;108796;1258;61121;-89
2023/08/07 15:37:40;;;;;;;1.20;0.50;;;;;;;35.68;31.77;99612.56;108728;1259;63684;-88
2023/08/07 15:40:28;;;;;;;2.70;0.50;;;;;;;35.67;32.06;99614.86;108764;1259;60444;-87
2023/08/07 15:43:17;;;;;;;7.00;1.80;;;;;;;35.71;32.05;99617.52;108742;1260;59270;-87
2023/08/07 15:46:04;;;;;;;3.50;1.60;;;;;;;35.69;32.43;99626.45;108609;1263;66210;-87
2023/08/07 15:48:52;;;;;;;1.10;0.80;;;;;;;35.95;32.20;99634.48;108750;1258;61763;-87
2023/08/07 15:51:40;;;;;;;0.90;0.60;;;;;;;35.78;32.13;99638.52;108696;1258;65047;-88
2023/08/07 15:54:28;;;;;;;2.60;1.30;;;;;;;35.67;32.35;99641.63;108722;1258;59161;-87
2023/08/07 15:57:16;;;;;;;4.20;0.80;;;;;;;35.67;32.34;99654.88;108688;1259;58998;-87
2023/08/07 16:00:05;;;;;;;1.60;0.60;;;;;;;35.65;32.44;99668.67;108758;1258;67021;-86
2023/08/07 16:03:01;;;;;;;0.80;0.80;;;;;;;35.58;32.73;99678.88;108666;1257;59191;-87
2023/08/07 16:05:49;;;;;;;1.20;0.80;;;;;;;35.58;32.81;99691.53;108782;1258;62992;-88
2023/08/07 16:08:37;;;;;;;0.70;0.60;;;;;;;35.50;32.89;99703.45;108758;1259;60898;-87
2023/08/07 16:11:25;;;;;;;6.90;0.60;;;;;;;35.40;32.99;99714.89;108619;1259;59805;-86
2023/08/07 16:14:12;;;;;;;0.70;0.40;;;;;;;35.44;33.02;99720.50;108687;1258;64541;-87
2023/08/07 16:17:01;;;;;;;1.80;0.50;;;;;;;35.44;33.21;99727.53;108740;1259;59768;-87
2023/08/07 16:19:49;;;;;;;2.30;0.60;;;;;;;35.54;33.26;99728.70;108723;1259;62686;-87
2023/08/07 16:22:37;;;;;;;2.00;0.50;;;;;;;35.61;33.17;99735.80;108724;1259;59894;-86
2023/08/07 16:25:25;;;;;;;1.70;1.20;;;;;;;35.59;33.25;99742.05;108688;1259;59873;-87
2023/08/07 16:28:14;;;;;;;1.00;0.60;;;;;;;35.60;33.16;99748.81;108694;1262;66961;-87
2023/08/07 16:31:02;;;;;;;1.10;1.00;;;;;;;35.32;33.80;99754.72;108783;1258;59136;-87
2023/08/07 16:33:50;;;;;;;1.40;0.70;;;;;;;35.27;33.79;99753.88;108656;1259;65349;-87
2023/08/07 16:36:37;;;;;;;1.90;1.10;;;;;;;35.16;34.42;99768.98;108658;1259;59813;-87
2023/08/07 16:39:25;;;;;;;1.50;0.90;;;;;;;35.23;34.41;99777.33;108686;1259;59308;-86
2023/08/07 16:42:13;;;;;;;1.00;0.90;;;;;;;35.17;34.61;99785.84;108709;1258;66697;-86
2023/08/07 16:45:01;;;;;;;3.60;1.00;;;;;;;35.12;34.50;99791.29;108725;1258;60012;-86
2023/08/07 16:47:49;;;;;;;1.00;0.90;;;;;;;35.19;34.41;99796.35;108757;1258;65206;-87
2023/08/07 16:50:37;;;;;;;1.50;1.10;;;;;;;35.16;34.58;99806.95;108685;1259;59732;-86
2023/08/07 16:53:25;;;;;;;2.30;1.00;;;;;;;35.02;34.95;99811.20;108690;1259;60728;-87
2023/08/07 16:56:13;;;;;;;3.30;1.20;;;;;;;34.86;35.19;99821.20;108688;1259;67105;-87
2023/08/07 16:59:01;;;;;;;1.90;0.90;;;;;;;34.73;35.68;99825.80;108714;1258;59796;-87
2023/08/07 17:01:49;;;;;;;3.40;1.30;;;;;;;34.60;35.99;99829.87;108720;1259;64977;-88
2023/08/07 17:04:37;;;;;;;1.80;1.10;;;;;;;34.43;35.93;99831.69;108737;1259;59210;-86
2023/08/07 17:07:25;;;;;;;2.60;1.30;;;;;;;34.28;35.97;99836.41;108710;1258;59222;-87
2023/08/07 17:10:16;;;;;;;5.60;1.10;;;;;;;34.15;36.09;99845.21;108685;1258;66071;-87
2023/08/07 17:13:03;;;;;;;2.60;1.00;;;;;;;33.98;36.70;99851.59;108766;1258;59802;-86
2023/08/07 17:15:52;;;;;;;1.20;1.10;;;;;;;33.84;36.69;99848.86;108645;1258;65974;-87
2023/08/07 17:18:40;;;;;;;3.60;1.30;;;;;;;33.75;36.69;99848.73;108574;1259;59382;-87
2023/08/07 17:21:28;;;;;;;9.80;1.60;;;;;;;33.51;37.01;99855.14;108725;1258;59215;-88
2023/08/07 17:24:16;;;;;;;2.20;1.30;;;;;;;33.41;37.47;99859.55;108737;1258;65789;-87
2023/08/07 17:27:04;;;;;;;3.30;1.30;;;;;;;33.37;37.34;99861.86;108738;1258;60846;-88
2023/08/07 17:29:53;;;;;;;5.40;1.40;;;;;;;33.06;37.69;99865.02;108750;1258;65422;-87
2023/08/07 17:32:41;;;;;;;1.60;1.50;;;;;;;32.95;37.70;99866.58;108677;1258;59745;-88
2023/08/07 17:35:30;;;;;;;1.80;1.40;;;;;;;32.91;37.80;99873.84;108653;1258;60106;-87
2023/08/07 17:38:18;;;;;;;8.40;3.00;;;;;;;32.65;37.99;99878.81;108724;1259;65510;-88
2023/08/07 17:41:06;;;;;;;1.90;1.60;;;;;;;32.54;38.26;99886.71;108703;1258;60084;-87
2023/08/07 17:43:54;;;;;;;1.60;1.40;;;;;;;32.46;38.25;99895.87;108634;1259;64908;-86
2023/08/07 17:46:43;;;;;;;1.90;1.20;;;;;;;32.31;38.68;99907.20;108746;1259;59174;-87
2023/08/07 17:49:31;;;;;;;3.50;1.40;;;;;;;32.28;38.71;99913.52;108609;1258;59439;-87
2023/08/07 17:52:20;;;;;;;8.60;1.60;;;;;;;32.21;38.68;99923.05;108770;1258;65706;-87
2023/08/07 17:55:11;;;;;;;3.30;1.40;;;;;;;32.07;38.84;99933.21;108686;1258;59883;-87
2023/08/07 17:58:00;;;;;;;3.20;1.60;;;;;;;32.03;39.04;99934.20;108623;1257;64109;-87
2023/08/07 18:00:47;;;;;;;1.80;1.50;;;;;;;31.98;39.16;99939.88;108660;1258;59802;-87
2023/08/07 18:03:36;;;;;;;3.40;1.50;;;;;;;31.98;39.10;99941.35;108669;1258;59243;-88
2023/08/07 18:06:23;;;;;;;5.10;1.60;;;;;;;32.02;39.08;99947.55;108613;1259;67592;-87
2023/08/07 18:09:12;;;;;;;2.80;1.60;;;;;;;31.93;39.32;99954.02;108649;1259;59105;-87
2023/08/07 18:12:00;;;;;;;1.60;1.20;;;;;;;31.54;40.13;99965.51;108640;1259;65086;-87
2023/08/07 18:14:48;;;;;;;3.00;1.60;;;;;;;31.37;40.63;99966.56;108726;1259;59128;-87
2023/08/07 18:17:35;;;;;;;1.60;1.30;;;;;;;31.42;40.73;99971.88;108646;1259;59157;-87
2023/08/07 18:20:23;;;;;;;2.60;1.50;;;;;;;31.30;41.01;99972.73;108762;1258;66650;-86
2023/08/07 18:23:11;;;;;;;1.60;1.40;;;;;;;31.16;41.29;99978.32;108751;1257;60968;-87
2023/08/07 18:25:59;;;;;;;1.70;1.50;;;;;;;31.05;41.64;99985.77;108758;1259;64773;-86
2023/08/07 18:28:47;;;;;;;2.60;1.60;;;;;;;30.92;42.14;99989.65;108634;1258;59451;-87
2023/08/07 18:31:35;;;;;;;3.50;1.50;;;;;;;30.79;42.51;99992.67;108716;1259;60591;-86
2023/08/07 18:34:23;;;;;;;1.40;1.30;;;;;;;30.67;43.10;99995.60;108747;1259;65883;-86
2023/08/07 18:37:11;;;;;;;3.50;1.70;;;;;;;30.69;43.10;99999.35;108784;1258;59264;-86
2023/08/07 18:39:59;;;;;;;1.60;1.40;;;;;;;30.79;42.99;100001.20;108687;1259;62794;-86
2023/08/07 18:42:46;;;;;;;1.40;1.30;;;;;;;30.67;43.36;99994.95;108625;1259;59652;-86
2023/08/07 18:45:34;;;;;;;2.60;1.60;;;;;;;30.52;44.18;99997.14;108697;1259;59135;-87
2023/08/07 18:48:22;;;;;;;2.70;1.60;;;;;;;30.52;44.35;100005.36;108661;1259;67024;-86
2023/08/07 18:51:10;;;;;;;4.40;1.50;;;;;;;30.46;44.78;100014.71;108689;1258;59902;-86
2023/08/07 18:53:58;;;;;;;2.60;1.50;;;;;;;30.47;44.98;100019.92;108671;1259;65173;-86
2023/08/07 18:56:48;;;;;;;3.10;1.40;;;;;;;30.40;45.36;100021.81;108764;1258;59335;-86
2023/08/07 18:59:36;;;;;;;1.70;1.60;;;;;;;30.37;45.54;100024.90;108697;1258;60189;-86
2023/08/07 19:02:24;;;;;;;1.70;1.60;;;;;;;30.36;46.04;100024.02;108753;1258;65914;-86
2023/08/07 19:05:11;;;;;;;4.00;1.60;;;;;;;30.28;46.28;100023.98;108722;1258;60172;-86
2023/08/07 19:07:59;;;;;;;5.60;2.00;;;;;;;30.16;46.43;100033.06;108631;1257;65095;-86
2023/08/07 19:10:47;;;;;;;1.90;1.70;;;;;;;29.95;47.52;100042.35;108642;1259;59580;-86
2023/08/07 19:13:36;;;;;;;2.20;1.80;;;;;;;29.79;48.46;100043.67;108766;1257;59106;-86
2023/08/07 19:16:27;;;;;;;1.70;1.50;;;;;;;29.87;48.51;100048.00;108709;1259;66939;-90
2023/08/07 19:19:15;;;;;;;1.60;1.50;;;;;;;29.80;48.92;100053.32;108699;1258;60023;-89
2023/08/07 19:22:03;;;;;;;1.40;1.30;;;;;;;29.68;49.39;100058.77;108729;1257;64937;-90
2023/08/07 19:24:51;;;;;;;2.00;1.80;;;;;;;29.64;49.65;100056.71;108699;1258;60886;-89
2023/08/07 19:27:38;;;;;;;2.20;1.70;;;;;;;29.42;50.45;100052.73;108793;1258;59770;-86
2023/08/07 19:30:26;;;;;;;1.80;1.60;;;;;;;29.27;51.20;100059.91;108747;1257;64687;-90
2023/08/07 19:33:15;;;;;;;2.90;1.70;;;;;;;29.26;51.57;100060.05;108711;1258;60987;-89
2023/08/07 19:36:03;;;;;;;2.20;1.30;;;;;;;29.16;52.56;100064.59;108684;1259;64870;-89
2023/08/07 19:38:51;;;;;;;1.80;1.60;;;;;;;29.08;53.20;100071.23;108724;1258;59082;-87
2023/08/07 19:41:40;;;;;;;2.20;1.50;;;;;;;28.95;53.88;100073.58;108593;1259;59158;-87
2023/08/07 19:44:29;;;;;;;2.20;1.60;;;;;;;28.75;54.57;100071.95;108682;1258;67229;-87
2023/08/07 19:47:16;;;;;;;2.10;1.90;;;;;;;28.53;56.01;100072.67;108768;1258;60819;-87
2023/08/07 19:50:23;;;;;;;2.90;1.50;;;;;;;28.48;56.63;100075.10;108754;1258;65067;-85
2023/08/07 19:53:11;;;;;;;4.60;1.90;;;;;;;28.49;57.03;100076.46;108786;1258;59332;-86
2023/08/07 19:55:59;;;;;;;4.70;1.90;;;;;;;28.57;56.75;100081.55;108624;1258;61770;-88
2023/08/07 19:58:47;;;;;;;4.00;1.80;;;;;;;28.46;57.11;100083.28;108525;1258;66831;-88
2023/08/07 20:01:34;;;;;;;6.80;2.20;;;;;;;28.35;57.78;100083.48;108716;1258;59991;-86
2023/08/07 20:04:22;;;;;;;2.80;2.00;;;;;;;28.39;57.62;100088.13;108697;1259;65417;-89
2023/08/07 20:07:10;;;;;;;3.60;2.30;;;;;;;28.27;58.38;100084.66;108712;1258;59111;-88
2023/08/07 20:09:58;;;;;;;2.90;1.70;;;;;;;28.18;58.85;100084.39;108788;1258;59301;-89
2023/08/07 20:12:46;;;;;;;3.60;2.10;;;;;;;28.15;58.74;100081.98;108637;1257;65045;-86
2023/08/07 20:15:36;;;;;;;4.10;2.10;;;;;;;27.99;59.63;100088.64;108731;1258;60294;-88
2023/08/07 20:18:24;;;;;;;3.90;2.20;;;;;;;27.90;60.43;100092.61;108753;1259;65471;-89
2023/08/07 20:21:12;;;;;;;2.30;2.00;;;;;;;27.92;60.57;100086.26;108736;1258;59742;-88
2023/08/07 20:24:03;;;;;;;5.80;2.00;;;;;;;28.02;60.18;100086.06;108513;1259;59232;-89
2023/08/07 20:26:51;;;;;;;2.30;2.00;;;;;;;28.04;60.01;100080.36;108634;1259;66892;-88
2023/08/07 20:29:39;;;;;;;2.70;2.40;;;;;;;28.03;60.22;100083.09;108793;1258;61097;-85
2023/08/07 20:32:27;;;;;;;2.20;2.00;;;;;;;28.03;60.62;100083.89;108732;1258;65379;-89
2023/08/07 20:35:14;;;;;;;3.80;2.10;;;;;;;27.97;61.15;100081.91;108738;1258;59135;-88
2023/08/07 20:38:02;;;;;;;5.20;2.30;;;;;;;27.97;61.57;100085.36;108709;1258;59609;-86
2023/08/07 20:40:50;;;;;;;4.00;2.50;;;;;;;27.98;61.80;100083.19;108806;1258;66053;-89
2023/08/07 20:43:38;;;;;;;3.30;2.60;;;;;;;28.03;61.50;100085.09;108737;1258;61063;-90
2023/08/07 20:46:26;;;;;;;4.70;2.60;;;;;;;28.01;61.94;100087.67;108719;1258;63927;-88
2023/08/07 20:49:14;;;;;;;3.00;2.20;;;;;;;27.97;62.36;100092.10;108716;1258;59080;-86
2023/08/07 20:52:01;;;;;;;5.00;2.50;;;;;;;27.99;62.34;100092.66;108753;1258;59241;-86
2023/08/07 20:54:49;;;;;;;2.60;2.10;;;;;;;27.99;62.37;100089.29;108737;1258;65804;-86
2023/08/07 20:57:37;;;;;;;4.10;2.60;;;;;;;28.00;62.04;100087.35;108709;1258;59790;-86
2023/08/07 21:00:25;;;;;;;3.40;2.20;;;;;;;28.02;61.33;100091.76;108747;1258;63903;-87
2023/08/07 21:03:13;;;;;;;3.30;2.50;;;;;;;27.84;61.45;100101.42;108703;1259;59442;-86
2023/08/07 21:06:00;;;;;;;2.90;2.30;;;;;;;27.76;61.61;100101.92;108701;1258;60124;-86
2023/08/07 21:08:49;;;;;;;3.30;2.60;;;;;;;27.79;60.52;100106.40;108766;1258;67050;-87
2023/08/07 21:11:37;;;;;;;3.10;2.20;;;;;;;27.58;60.91;100105.81;108684;1258;60334;-89
2023/08/07 21:14:25;;;;;;;3.30;2.10;;;;;;;27.41;61.55;100110.09;108675;1259;65122;-86
2023/08/07 21:17:13;;;;;;;4.40;2.60;;;;;;;27.26;62.37;100118.19;108690;1259;59846;-86
2023/08/07 21:20:01;;;;;;;2.80;2.20;;;;;;;27.32;62.15;100124.51;108712;1259;59067;-85
2023/08/07 21:22:49;;;;;;;3.90;2.70;;;;;;;27.15;63.18;100128.34;108660;1258;66906;-89
2023/08/07 21:25:38;;;;;;;3.00;2.30;;;;;;;27.10;63.67;100126.89;108358;1259;71681;-88
2023/08/07 21:28:26;;;;;;;4.50;2.30;;;;;;;27.01;63.91;100122.16;108589;1258;75174;-88
2023/08/07 21:31:14;;;;;;;3.60;2.40;;;;;;;26.94;64.29;100125.36;108673;1259;59394;-86
2023/08/07 21:34:02;;;;;;;2.80;2.50;;;;;;;26.90;64.59;100127.59;108759;1258;59762;-86
2023/08/07 21:36:49;;;;;;;3.50;3.00;;;;;;;26.77;65.59;100125.80;108728;1258;66005;-87
2023/08/07 21:39:37;;;;;;;4.90;2.70;;;;;;;26.68;66.71;100126.99;108765;1259;60709;-90
2023/08/07 21:42:25;;;;;;;4.10;2.50;;;;;;;26.68;66.92;100127.41;108649;1259;65083;-87
2023/08/07 21:45:13;;;;;;;6.10;2.80;;;;;;;26.62;67.46;100133.06;108766;1258;58986;-87
2023/08/07 21:48:03;;;;;;;3.10;2.30;;;;;;;26.60;67.50;100135.45;108742;1258;59112;-87
2023/08/07 21:50:51;;;;;;;4.10;2.50;;;;;;;26.52;67.77;100138.30;108708;1257;65980;-89
2023/08/07 21:53:39;;;;;;;3.20;2.50;;;;;;;26.49;67.48;100133.41;108576;1259;60754;-88
2023/08/07 21:56:26;;;;;;;3.40;2.70;;;;;;;26.49;67.28;100137.23;108492;1258;64054;-89
2023/08/07 21:59:15;;;;;;;3.10;2.60;;;;;;;26.51;66.89;100138.69;108544;1259;59254;-88
2023/08/07 22:02:03;;;;;;;4.00;2.70;;;;;;;26.40;67.34;100144.27;108646;1259;59652;-87
2023/08/07 22:04:51;;;;;;;5.90;2.60;;;;;;;26.41;67.36;100145.38;108737;1259;65990;-86
2023/08/07 22:07:39;;;;;;;6.90;2.30;;;;;;;26.36;67.81;100146.80;108755;1259;70211;-88
2023/08/07 22:10:27;;;;;;;3.30;2.30;;;;;;;26.26;68.92;100145.33;108631;1258;62559;-87
2023/08/07 22:13:15;;;;;;;2.50;2.30;;;;;;;26.31;68.78;100148.71;108724;1259;59685;-88
2023/08/07 22:16:03;;;;;;;3.70;2.30;;;;;;;26.20;69.49;100148.98;108773;1258;59201;-89
2023/08/07 22:18:51;;;;;;;3.00;2.40;;;;;;;26.13;70.05;100146.62;108709;1258;65905;-86
2023/08/07 22:21:39;;;;;;;6.10;2.20;;;;;;;26.20;69.66;100148.74;108586;1258;59957;-86
2023/08/07 22:24:28;;;;;;;4.90;2.60;;;;;;;26.18;69.64;100147.20;108348;1259;65844;-88
2023/08/07 22:27:15;;;;;;;5.70;2.30;;;;;;;26.17;69.48;100148.64;108581;1259;59049;-89
2023/08/07 22:30:07;;;;;;;3.00;2.10;;;;;;;26.09;69.72;100145.48;108781;1258;59679;-86
2023/08/07 22:32:55;;;;;;;4.50;2.50;;;;;;;26.04;70.18;100145.05;108583;1259;188661;-88
2023/08/07 22:35:43;;;;;;;2.60;2.40;;;;;;;26.03;70.25;100145.38;108745;1258;60051;-90
2023/08/07 22:38:31;;;;;;;3.10;2.40;;;;;;;26.02;70.36;100145.04;108724;1257;63964;-86
2023/08/07 22:41:19;;;;;;;3.20;2.30;;;;;;;25.87;71.28;100146.23;108615;1259;59208;-85
2023/08/07 22:44:06;;;;;;;3.50;2.50;;;;;;;25.78;71.76;100151.27;108785;1259;59260;-87
2023/08/07 22:46:55;;;;;;;5.00;2.20;;;;;;;25.80;71.69;100155.77;108726;1259;67736;-88
2023/08/07 22:49:43;;;;;;;3.90;2.50;;;;;;;25.89;70.92;100160.65;108665;1259;61118;-89
2023/08/07 22:52:32;;;;;;;3.60;2.80;;;;;;;25.94;70.82;100158.13;108700;1259;73056;-85
2023/08/07 22:55:19;;;;;;;3.00;2.40;;;;;;;25.95;70.91;100159.57;108711;1258;59192;-88
2023/08/07 22:58:07;;;;;;;3.80;2.40;;;;;;;25.98;70.69;100163.09;108723;1259;59032;-90
2023/08/07 23:00:55;;;;;;;3.00;2.60;;;;;;;26.02;71.74;100159.92;108755;1259;65992;-90
2023/08/07 23:03:43;;;;;;;3.30;2.60;;;;;;;26.00;72.83;100168.23;108784;1258;60134;-87
2023/08/07 23:06:31;;;;;;;4.80;2.50;;;;;;;26.04;73.18;100172.89;108570;1259;63901;-89
2023/08/07 23:09:19;;;;;;;3.10;2.40;;;;;;;26.04;73.75;100175.37;108745;1258;59128;-88
2023/08/07 23:12:07;;;;;;;2.60;1.90;;;;;;;26.08;73.95;100180.20;108738;1259;59112;-86
2023/08/07 23:14:55;;;;;;;4.10;2.30;;;;;;;26.15;73.92;100181.35;108745;1258;66073;-88
2023/08/07 23:17:43;;;;;;;4.50;2.30;;;;;;;26.13;73.99;100184.77;108648;1259;61149;-86
2023/08/07 23:20:30;;;;;;;3.80;2.70;;;;;;;26.22;73.93;100187.80;108492;1259;62576;-86
2023/08/07 23:23:18;;;;;;;4.40;2.40;;;;;;;26.21;73.89;100193.06;108750;1258;59145;-86
2023/08/07 23:26:06;;;;;;;3.50;2.40;;;;;;;26.15;74.23;100194.39;108708;1259;59412;-86
2023/08/07 23:28:54;;;;;;;2.70;2.10;;;;;;;26.37;72.87;100189.55;108665;1259;67171;-88
2023/08/07 23:31:41;;;;;;;2.70;2.00;;;;;;;26.40;72.32;100191.63;108643;1262;60204;-86
2023/08/07 23:34:30;;;;;;;2.20;2.00;;;;;;;26.39;72.33;100195.40;108663;1259;65043;-89
2023/08/07 23:37:18;;;;;;;5.20;2.30;;;;;;;26.41;72.20;100197.65;108622;1261;59241;-89
2023/08/07 23:40:06;;;;;;;5.30;2.10;;;;;;;26.38;72.40;100204.74;108675;1259;59847;-85
2023/08/07 23:42:54;;;;;;;2.70;2.20;;;;;;;26.47;71.78;100208.39;108744;1258;66993;-86
2023/08/07 23:45:42;;;;;;;4.10;2.30;;;;;;;26.36;71.17;100208.19;108575;1259;59900;-85
2023/08/07 23:48:30;;;;;;;3.20;2.60;;;;;;;26.31;69.88;100214.16;108678;1259;65245;-86
2023/08/07 23:51:18;;;;;;;2.40;2.10;;;;;;;26.21;69.49;100214.58;108742;1260;59648;-86
2023/08/07 23:54:06;;;;;;;4.00;2.50;;;;;;;26.23;68.61;100211.39;108511;1261;59086;-88
2023/08/07 23:56:53;;;;;;;3.00;2.20;;;;;;;26.18;67.96;100209.93;108783;1259;67233;-86
2023/08/07 23:59:41;;;;;;;7.00;2.70;;;;;;;25.91;69.20;100211.52;108640;1261;60947;-89
